4A9

Isbell Field Airport

Fort Payne, Alabama, USA
METAR K4A9 260315Z AUTO 00000KT 10SM SCT120 10/09 A2994 RMK AO2
Observed Flight Rules
Apr-26 @ 03:15 UTC (7 minutes ago) Visual Flight Rules
Visibility Clouds
10 miles
  • Scattered at 12,000' AGL
Temperatures Readings
Current 10°C / 50°F
Dewpoint 9°C / 48°F
Humidity 94%
Altimeter 29.94" Hg
Pressure 1014 hPa
Elevation 267
METAR K4A9 260315Z AUTO 00000KT 10SM SCT120 10/09 A2994 RMK AO2
Observed Flight Rules
Apr-26 @ 03:15 UTC
(7 minutes ago)
VFR
Clouds
  • Scattered at 12,000' AGL
Temperature Dewpoint
10°C / 50°F 9°C / 48°F
Humidity Altimeter Pressure
94% 29.94" Hg 1014 hPa